Time;durP1;ratioP1;P1;durP2;ratioP2;P2;SDS_P1;SDS_P2;PMS_P1;PMS_P2;Temp;Humidity;BMP_temperature;BMP_pressure;BME280_temperature;BME280_humidity;BME280_pressure;Samples;Min_cycle;Max_cycle;Signal;HPM_P1;HPM_P2
2023/03/23 00:01:02;;;;;;;;;;;;;;;;;;4984667;28;19930;-82
2023/03/23 00:03:28;;;;;;;;;;;;;;;;;;4985202;28;19929;-80
2023/03/23 00:05:59;;;;;;;;;;;;;;;;;;4982240;28;19929;-81
2023/03/23 00:08:25;;;;;;;;;;;;;;;;;;4982500;28;20005;-81
2023/03/23 00:10:57;;;;;;;;;;;;;;;;;;4985303;28;20322;-81
2023/03/23 00:13:23;;;;;;;;;;;;;;;;;;4987355;28;19937;-81
2023/03/23 00:15:51;;;;;;;;;;;;;;;;;;4987585;28;19929;-82
2023/03/23 00:18:20;;;;;;;;;;;;;;;;;;4990218;28;19933;-82
2023/03/23 00:20:48;;;;;;;;;;;;;;;;;;4987171;28;19930;-82
2023/03/23 00:23:18;;;;;;;;;;;;;;;;;;4988953;28;20389;-81
2023/03/23 00:25:44;;;;;;;;;;;;;;;;;;4990108;28;20448;-82
2023/03/23 00:28:12;;;;;;;;;;;;;;;;;;4988476;28;20387;-81
2023/03/23 00:30:38;;;;;;;;;;;;;;;;;;4987664;28;20301;-81
2023/03/23 00:33:04;;;;;;;;;;;;;;;;;;4985118;28;20222;-82
2023/03/23 00:35:30;;;;;;;;;;;;;;;;;;4971191;28;19937;-79
2023/03/23 00:37:58;;;;;;;;;;;;;;;;;;4987397;28;19930;-80
2023/03/23 00:40:24;;;;;;;;;;;;;;;;;;4970721;28;19925;-81
2023/03/23 00:42:50;;;;;;;;;;;;;;;;;;4987613;28;19934;-81
2023/03/23 00:45:16;;;;;;;;;;;;;;;;;;4966624;28;19933;-81
2023/03/23 00:47:46;;;;;;;;;;;;;;;;;;4968114;28;20309;-79
2023/03/23 00:50:13;;;;;;;;;;;;;;;;;;4983130;28;19956;-80
2023/03/23 00:52:39;;;;;;;;;;;;;;;;;;4982691;28;19932;-81
2023/03/23 00:55:05;;;;;;;;;;;;;;;;;;4982505;28;19930;-82
2023/03/23 00:57:31;;;;;;;;;;;;;;;;;;4984221;28;19937;-80
2023/03/23 00:59:57;;;;;;;;;;;;;;;;;;4969103;28;19930;-80
2023/03/23 01:02:24;;;;;;;;;;;;;;;;;;4983184;28;20527;-81
2023/03/23 01:04:51;;;;;;;;;;;;;;;;;;4983952;28;19929;-81
2023/03/23 01:07:17;;;;;;;;;;;;;;;;;;4966659;28;20386;-82
2023/03/23 01:09:44;;;;;;;;;;;;;;;;;;4968319;28;19930;-82
2023/03/23 01:12:10;;;;;;;;;;;;;;;;;;4981963;28;19936;-81
2023/03/23 01:14:36;;;;;;;;;;;;;;;;;;4965989;28;19930;-80
2023/03/23 01:17:02;;;;;;;;;;;;;;;;;;4983115;28;19941;-81
2023/03/23 01:19:28;;;;;;;;;;;;;;;;;;4981372;28;19929;-81
2023/03/23 01:21:54;;;;;;;;;;;;;;;;;;4983028;28;20492;-80
2023/03/23 01:24:20;;;;;;;;;;;;;;;;;;4981964;28;19926;-81
2023/03/23 01:26:46;;;;;;;;;;;;;;;;;;4983271;28;19929;-81
2023/03/23 01:29:12;;;;;;;;;;;;;;;;;;4987674;28;19929;-81
2023/03/23 01:31:38;;;;;;;;;;;;;;;;;;4988005;28;19925;-82
2023/03/23 01:34:04;;;;;;;;;;;;;;;;;;4984444;28;20008;-81
2023/03/23 01:36:32;;;;;;;;;;;;;;;;;;4987671;28;20016;-81
2023/03/23 01:38:58;;;;;;;;;;;;;;;;;;4979104;28;19926;-82
2023/03/23 01:41:24;;;;;;;;;;;;;;;;;;4985727;28;19930;-81
2023/03/23 01:43:50;;;;;;;;;;;;;;;;;;4969708;28;19964;-80
2023/03/23 01:46:16;;;;;;;;;;;;;;;;;;4982178;28;20026;-81
2023/03/23 01:48:41;;;;;;;;;;;;;;;;;;4986551;28;19930;-80
2023/03/23 01:51:07;;;;;;;;;;;;;;;;;;4986526;28;20267;-81
2023/03/23 01:53:33;;;;;;;;;;;;;;;;;;4986986;28;19938;-80
2023/03/23 01:55:59;;;;;;;;;;;;;;;;;;4980004;28;20045;-79
2023/03/23 01:58:26;;;;;;;;;;;;;;;;;;4967829;28;19933;-81
2023/03/23 02:00:53;;;;;;;;;;;;;;;;;;4965429;28;19940;-80
2023/03/23 02:03:19;;;;;;;;;;;;;;;;;;4981186;28;20389;-80
2023/03/23 02:05:45;;;;;;;;;;;;;;;;;;4981250;28;19926;-81
2023/03/23 02:08:12;;;;;;;;;;;;;;;;;;4981975;28;19930;-81
2023/03/23 02:10:38;;;;;;;;;;;;;;;;;;4981994;28;19941;-81
2023/03/23 02:13:04;;;;;;;;;;;;;;;;;;4980219;28;19940;-80
2023/03/23 02:15:30;;;;;;;;;;;;;;;;;;4983187;28;19925;-81
2023/03/23 02:17:56;;;;;;;;;;;;;;;;;;4981868;28;19937;-81
2023/03/23 02:20:22;;;;;;;;;;;;;;;;;;4965451;28;19930;-80
2023/03/23 02:22:48;;;;;;;;;;;;;;;;;;4981645;28;19932;-80
2023/03/23 02:25:14;;;;;;;;;;;;;;;;;;4980902;28;20385;-79
2023/03/23 02:27:40;;;;;;;;;;;;;;;;;;4983544;28;19926;-81
2023/03/23 02:30:07;;;;;;;;;;;;;;;;;;4965039;28;19936;-80
2023/03/23 02:32:33;;;;;;;;;;;;;;;;;;4982150;28;19930;-80
2023/03/23 02:34:59;;;;;;;;;;;;;;;;;;4979695;28;19941;-79
2023/03/23 02:37:25;;;;;;;;;;;;;;;;;;4964557;28;19960;-81
2023/03/23 02:39:51;;;;;;;;;;;;;;;;;;4982709;28;20409;-80
2023/03/23 02:42:17;;;;;;;;;;;;;;;;;;4964673;28;20662;-80
2023/03/23 02:44:43;;;;;;;;;;;;;;;;;;4979755;28;19934;-81
2023/03/23 02:47:09;;;;;;;;;;;;;;;;;;4978566;28;19941;-79
2023/03/23 02:49:35;;;;;;;;;;;;;;;;;;4981533;28;19930;-80
2023/03/23 02:52:01;;;;;;;;;;;;;;;;;;4980531;28;20293;-81
2023/03/23 02:54:26;;;;;;;;;;;;;;;;;;4986413;28;19925;-82
2023/03/23 02:56:52;;;;;;;;;;;;;;;;;;4981053;28;19972;-81
2023/03/23 02:59:18;;;;;;;;;;;;;;;;;;4978726;28;19965;-80
2023/03/23 03:01:44;;;;;;;;;;;;;;;;;;4978055;28;20004;-79
2023/03/23 03:04:12;;;;;;;;;;;;;;;;;;4961255;28;19930;-80
2023/03/23 03:06:39;;;;;;;;;;;;;;;;;;4978162;28;20294;-80
2023/03/23 03:09:06;;;;;;;;;;;;;;;;;;4977915;28;19945;-80
2023/03/23 03:11:32;;;;;;;;;;;;;;;;;;4976460;28;20520;-80
2023/03/23 03:13:59;;;;;;;;;;;;;;;;;;4980255;28;19933;-79
2023/03/23 03:16:25;;;;;;;;;;;;;;;;;;4980671;28;19962;-81
2023/03/23 03:18:51;;;;;;;;;;;;;;;;;;4980264;28;19933;-79
2023/03/23 03:21:19;;;;;;;;;;;;;;;;;;4962207;28;19930;-80
2023/03/23 03:23:45;;;;;;;;;;;;;;;;;;4980292;28;19930;-81
2023/03/23 03:26:11;;;;;;;;;;;;;;;;;;4975876;28;20547;-80
2023/03/23 03:28:37;;;;;;;;;;;;;;;;;;4981707;28;19930;-80
2023/03/23 03:31:03;;;;;;;;;;;;;;;;;;4977031;28;19945;-80
2023/03/23 03:33:30;;;;;;;;;;;;;;;;;;4980080;28;19926;-81
2023/03/23 03:35:56;;;;;;;;;;;;;;;;;;4979388;28;20004;-81
2023/03/23 03:38:22;;;;;;;;;;;;;;;;;;4977548;28;19952;-80
2023/03/23 03:40:48;;;;;;;;;;;;;;;;;;4979214;28;19930;-79
2023/03/23 03:43:14;;;;;;;;;;;;;;;;;;4976215;28;19934;-80
2023/03/23 03:45:41;;;;;;;;;;;;;;;;;;4997134;28;19930;-80
2023/03/23 03:48:07;;;;;;;;;;;;;;;;;;4978244;28;19929;-79
2023/03/23 03:50:33;;;;;;;;;;;;;;;;;;4978937;28;19936;-79
2023/03/23 03:52:59;;;;;;;;;;;;;;;;;;4976543;28;20048;-80
2023/03/23 03:55:27;;;;;;;;;;;;;;;;;;4982597;28;19932;-81
2023/03/23 03:57:54;;;;;;;;;;;;;;;;;;4985311;28;19930;-81
2023/03/23 04:00:20;;;;;;;;;;;;;;;;;;4967778;28;19980;-81
2023/03/23 04:02:54;;;;;;;;;;;;;;;;;;4985165;28;19926;-81
2023/03/23 04:05:20;;;;;;;;;;;;;;;;;;4983683;28;19973;-81
2023/03/23 04:07:49;;;;;;;;;;;;;;;;;;4985336;28;19926;-81
2023/03/23 04:10:15;;;;;;;;;;;;;;;;;;4983426;28;19941;-81
2023/03/23 04:12:41;;;;;;;;;;;;;;;;;;4977177;28;19929;-79
2023/03/23 04:15:07;;;;;;;;;;;;;;;;;;4985904;28;20282;-81
2023/03/23 04:17:33;;;;;;;;;;;;;;;;;;4968285;28;19976;-80
2023/03/23 04:19:59;;;;;;;;;;;;;;;;;;4985318;28;19925;-80
2023/03/23 04:22:29;;;;;;;;;;;;;;;;;;4984379;28;20421;-82
2023/03/23 04:24:58;;;;;;;;;;;;;;;;;;4978937;28;19940;-80
2023/03/23 04:27:24;;;;;;;;;;;;;;;;;;4979867;28;20421;-81
2023/03/23 04:29:50;;;;;;;;;;;;;;;;;;4964406;28;19934;-80
2023/03/23 04:32:17;;;;;;;;;;;;;;;;;;4979766;28;19984;-81
2023/03/23 04:34:43;;;;;;;;;;;;;;;;;;4979906;28;19992;-81
2023/03/23 04:37:09;;;;;;;;;;;;;;;;;;4980060;28;20397;-81
2023/03/23 04:39:35;;;;;;;;;;;;;;;;;;4980370;28;20460;-81
2023/03/23 04:42:01;;;;;;;;;;;;;;;;;;4982400;28;20053;-81
2023/03/23 04:44:27;;;;;;;;;;;;;;;;;;4964774;28;19926;-81
2023/03/23 04:46:54;;;;;;;;;;;;;;;;;;4983321;28;19937;-82
2023/03/23 04:49:23;;;;;;;;;;;;;;;;;;4982338;28;19929;-81
2023/03/23 04:51:50;;;;;;;;;;;;;;;;;;4968648;28;19926;-81
2023/03/23 04:54:16;;;;;;;;;;;;;;;;;;4983766;28;19941;-82
2023/03/23 04:56:42;;;;;;;;;;;;;;;;;;4984914;28;20477;-82
2023/03/23 04:59:08;;;;;;;;;;;;;;;;;;4982677;28;19929;-82
2023/03/23 05:01:37;;;;;;;;;;;;;;;;;;4982159;28;20020;-81
2023/03/23 05:04:03;;;;;;;;;;;;;;;;;;4983217;28;19936;-81
2023/03/23 05:06:29;;;;;;;;;;;;;;;;;;4984246;28;19930;-80
2023/03/23 05:08:55;;;;;;;;;;;;;;;;;;4983822;28;19952;-81
2023/03/23 05:11:21;;;;;;;;;;;;;;;;;;4981490;28;19930;-80
2023/03/23 05:13:47;;;;;;;;;;;;;;;;;;4982203;28;20349;-79
2023/03/23 05:16:13;;;;;;;;;;;;;;;;;;4983461;28;20309;-80
2023/03/23 05:18:39;;;;;;;;;;;;;;;;;;4981437;28;19933;-81
2023/03/23 05:21:05;;;;;;;;;;;;;;;;;;4981908;28;20558;-80
2023/03/23 05:23:33;;;;;;;;;;;;;;;;;;4981786;28;19930;-81
2023/03/23 05:26:02;;;;;;;;;;;;;;;;;;4983240;28;19930;-81
2023/03/23 05:28:30;;;;;;;;;;;;;;;;;;4985859;28;20813;-81
2023/03/23 05:30:56;;;;;;;;;;;;;;;;;;4970993;28;19930;-81
2023/03/23 05:33:22;;;;;;;;;;;;;;;;;;4987693;28;19925;-80
2023/03/23 05:35:48;;;;;;;;;;;;;;;;;;4969435;28;20003;-80
2023/03/23 05:38:14;;;;;;;;;;;;;;;;;;4987969;28;19937;-81
2023/03/23 05:40:41;;;;;;;;;;;;;;;;;;4985837;28;19945;-81
2023/03/23 05:43:07;;;;;;;;;;;;;;;;;;4988718;28;20064;-80
2023/03/23 05:45:32;;;;;;;;;;;;;;;;;;4987585;28;20016;-80
2023/03/23 05:47:58;;;;;;;;;;;;;;;;;;4987289;28;19941;-80
2023/03/23 05:50:24;;;;;;;;;;;;;;;;;;4984409;28;19930;-79
2023/03/23 05:52:51;;;;;;;;;;;;;;;;;;4985710;28;20267;-81
2023/03/23 05:55:16;;;;;;;;;;;;;;;;;;4984711;28;19984;-81
2023/03/23 05:57:42;;;;;;;;;;;;;;;;;;4970817;28;19964;-80
2023/03/23 06:00:13;;;;;;;;;;;;;;;;;;4965030;28;19940;-81
2023/03/23 06:02:39;;;;;;;;;;;;;;;;;;4981303;28;19969;-80
2023/03/23 06:05:05;;;;;;;;;;;;;;;;;;4979478;28;20027;-80
2023/03/23 06:07:31;;;;;;;;;;;;;;;;;;4981811;28;20036;-81
2023/03/23 06:09:57;;;;;;;;;;;;;;;;;;4983125;28;20477;-80
2023/03/23 06:12:23;;;;;;;;;;;;;;;;;;4964996;28;19930;-79
2023/03/23 06:14:49;;;;;;;;;;;;;;;;;;4965836;28;20969;-79
2023/03/23 06:17:17;;;;;;;;;;;;;;;;;;4981630;28;19937;-80
2023/03/23 06:19:43;;;;;;;;;;;;;;;;;;4976659;28;19934;-79
2023/03/23 06:22:09;;;;;;;;;;;;;;;;;;4982266;28;19957;-79
2023/03/23 06:24:35;;;;;;;;;;;;;;;;;;4964570;28;19929;-80
2023/03/23 06:27:01;;;;;;;;;;;;;;;;;;4966828;28;20016;-79
2023/03/23 06:29:28;;;;;;;;;;;;;;;;;;4979927;28;19936;-80
2023/03/23 06:31:54;;;;;;;;;;;;;;;;;;4959030;28;19936;-79
2023/03/23 06:34:20;;;;;;;;;;;;;;;;;;4974723;28;20107;-80
2023/03/23 06:36:46;;;;;;;;;;;;;;;;;;4983117;28;19941;-79
2023/03/23 06:39:13;;;;;;;;;;;;;;;;;;4981002;28;19930;-79
2023/03/23 06:41:39;;;;;;;;;;;;;;;;;;4976947;28;19936;-81
2023/03/23 06:44:06;;;;;;;;;;;;;;;;;;4978607;28;20440;-80
2023/03/23 06:46:32;;;;;;;;;;;;;;;;;;4963959;28;19926;-80
2023/03/23 06:48:58;;;;;;;;;;;;;;;;;;4963572;28;19930;-80
2023/03/23 06:51:23;;;;;;;;;;;;;;;;;;4980578;28;20025;-80
2023/03/23 06:53:49;;;;;;;;;;;;;;;;;;4964992;28;19944;-81
2023/03/23 06:56:15;;;;;;;;;;;;;;;;;;4964613;28;19930;-80
2023/03/23 06:58:41;;;;;;;;;;;;;;;;;;4979447;28;20040;-80
2023/03/23 07:01:08;;;;;;;;;;;;;;;;;;4977754;28;19933;-83
2023/03/23 07:03:40;;;;;;;;;;;;;;;;;;4974602;28;20429;-84
2023/03/23 07:06:06;;;;;;;;;;;;;;;;;;4977316;28;19976;-84
2023/03/23 07:08:32;;;;;;;;;;;;;;;;;;4989109;28;21319;-83
2023/03/23 07:10:58;;;;;;;;;;;;;;;;;;4982401;28;19933;-83
2023/03/23 07:13:25;;;;;;;;;;;;;;;;;;4978341;28;20028;-84
2023/03/23 07:15:50;;;;;;;;;;;;;;;;;;4976097;28;19929;-82
2023/03/23 07:18:16;;;;;;;;;;;;;;;;;;4977970;28;20004;-82
2023/03/23 07:20:42;;;;;;;;;;;;;;;;;;4965572;28;19932;-82
2023/03/23 07:23:08;;;;;;;;;;;;;;;;;;4966247;28;19932;-83
2023/03/23 07:25:34;;;;;;;;;;;;;;;;;;4981520;28;19930;-81
2023/03/23 07:28:00;;;;;;;;;;;;;;;;;;4985957;28;19930;-81
2023/03/23 07:30:26;;;;;;;;;;;;;;;;;;4982282;28;19926;-82
2023/03/23 07:32:52;;;;;;;;;;;;;;;;;;4985897;28;20349;-82
2023/03/23 07:35:18;;;;;;;;;;;;;;;;;;4964772;28;20021;-81
2023/03/23 07:37:45;;;;;;;;;;;;;;;;;;4965145;28;20048;-81
2023/03/23 07:40:14;;;;;;;;;;;;;;;;;;4980577;28;20191;-81
2023/03/23 07:42:40;;;;;;;;;;;;;;;;;;4978793;28;20000;-81
2023/03/23 07:45:06;;;;;;;;;;;;;;;;;;4966457;28;20405;-82
2023/03/23 07:47:32;;;;;;;;;;;;;;;;;;4982605;28;20007;-79
2023/03/23 07:49:58;;;;;;;;;;;;;;;;;;4980229;28;20024;-84
2023/03/23 07:52:24;;;;;;;;;;;;;;;;;;4984173;28;19964;-82
2023/03/23 07:54:50;;;;;;;;;;;;;;;;;;4985168;28;20440;-82
2023/03/23 07:57:16;;;;;;;;;;;;;;;;;;4983451;28;19929;-81
2023/03/23 07:59:42;;;;;;;;;;;;;;;;;;4979209;28;19933;-82
2023/03/23 08:02:09;;;;;;;;;;;;;;;;;;4975635;28;19926;-82
2023/03/23 08:04:37;;;;;;;;;;;;;;;;;;4976157;28;20377;-80
2023/03/23 08:07:03;;;;;;;;;;;;;;;;;;4983508;28;19930;-79
2023/03/23 08:09:28;;;;;;;;;;;;;;;;;;4980970;28;19948;-82
2023/03/23 08:11:54;;;;;;;;;;;;;;;;;;4981843;28;20836;-81
2023/03/23 08:14:20;;;;;;;;;;;;;;;;;;4983163;28;19937;-82
2023/03/23 08:16:46;;;;;;;;;;;;;;;;;;4986112;28;19926;-82
2023/03/23 08:19:12;;;;;;;;;;;;;;;;;;4985566;28;19930;-83
2023/03/23 08:21:38;;;;;;;;;;;;;;;;;;4980729;28;19984;-82
2023/03/23 08:24:05;;;;;;;;;;;;;;;;;;4987427;28;20356;-78
2023/03/23 08:26:30;;;;;;;;;;;;;;;;;;4985231;28;20398;-79
2023/03/23 08:28:57;;;;;;;;;;;;;;;;;;4983627;28;20043;-79
2023/03/23 08:31:23;;;;;;;;;;;;;;;;;;4962053;28;19934;-80
2023/03/23 08:33:49;;;;;;;;;;;;;;;;;;4986130;28;19937;-80
2023/03/23 08:36:15;;;;;;;;;;;;;;;;;;4988645;28;19930;-80
2023/03/23 08:38:41;;;;;;;;;;;;;;;;;;4987254;28;20016;-79
2023/03/23 08:41:07;;;;;;;;;;;;;;;;;;4987855;28;19926;-80
2023/03/23 08:43:34;;;;;;;;;;;;;;;;;;4985837;28;19977;-80
2023/03/23 08:46:00;;;;;;;;;;;;;;;;;;4988530;28;19929;-80
2023/03/23 08:48:26;;;;;;;;;;;;;;;;;;4987294;28;19926;-79
2023/03/23 08:50:52;;;;;;;;;;;;;;;;;;4987037;28;20381;-80
2023/03/23 08:53:17;;;;;;;;;;;;;;;;;;4989185;28;19952;-79
2023/03/23 08:55:44;;;;;;;;;;;;;;;;;;4987066;28;19925;-79
2023/03/23 08:58:09;;;;;;;;;;;;;;;;;;4988828;28;20326;-79
2023/03/23 09:00:35;;;;;;;;;;;;;;;;;;4986224;28;19930;-79
2023/03/23 09:03:02;;;;;;;;;;;;;;;;;;4988987;28;20021;-80
2023/03/23 09:05:28;;;;;;;;;;;;;;;;;;4986075;28;20031;-80
2023/03/23 09:07:54;;;;;;;;;;;;;;;;;;4987916;28;20068;-80
2023/03/23 09:10:20;;;;;;;;;;;;;;;;;;4988036;28;20020;-80
2023/03/23 09:12:46;;;;;;;;;;;;;;;;;;4988344;28;20064;-80
2023/03/23 09:15:13;;;;;;;;;;;;;;;;;;4987383;28;19925;-79
2023/03/23 09:17:39;;;;;;;;;;;;;;;;;;4987742;28;19953;-80
2023/03/23 09:20:11;;;;;;;;;;;;;;;;;;4987728;28;20535;-80
2023/03/23 09:22:38;;;;;;;;;;;;;;;;;;4988456;28;20451;-79
2023/03/23 09:25:04;;;;;;;;;;;;;;;;;;4987505;28;19932;-80
2023/03/23 09:27:30;;;;;;;;;;;;;;;;;;4987157;28;19926;-80
2023/03/23 09:29:56;;;;;;;;;;;;;;;;;;4970427;28;19937;-78
2023/03/23 09:32:22;;;;;;;;;;;;;;;;;;4988016;28;20436;-80
2023/03/23 09:34:48;;;;;;;;;;;;;;;;;;4984885;28;19921;-80
2023/03/23 09:37:14;;;;;;;;;;;;;;;;;;4988262;28;19983;-80
2023/03/23 09:39:40;;;;;;;;;;;;;;;;;;4986230;28;20397;-79
2023/03/23 09:42:05;;;;;;;;;;;;;;;;;;4987445;28;19941;-80
2023/03/23 09:44:31;;;;;;;;;;;;;;;;;;4963662;28;19934;-79
2023/03/23 09:46:57;;;;;;;;;;;;;;;;;;4987569;28;20407;-80
2023/03/23 09:49:24;;;;;;;;;;;;;;;;;;4969728;28;20386;-80
2023/03/23 09:51:50;;;;;;;;;;;;;;;;;;4986155;28;19930;-80
2023/03/23 09:54:16;;;;;;;;;;;;;;;;;;4986570;28;19972;-80
2023/03/23 09:56:42;;;;;;;;;;;;;;;;;;4970380;28;20401;-80
2023/03/23 09:59:08;;;;;;;;;;;;;;;;;;4987290;28;20016;-79
2023/03/23 10:01:34;;;;;;;;;;;;;;;;;;4985586;28;19929;-80
2023/03/23 10:04:00;;;;;;;;;;;;;;;;;;4985629;28;19936;-80
2023/03/23 10:06:26;;;;;;;;;;;;;;;;;;4969844;28;19930;-79
2023/03/23 10:08:52;;;;;;;;;;;;;;;;;;4967769;28;20271;-79
2023/03/23 10:11:18;;;;;;;;;;;;;;;;;;4970057;28;19933;-79
2023/03/23 10:13:44;;;;;;;;;;;;;;;;;;4985938;28;19929;-79
2023/03/23 10:16:10;;;;;;;;;;;;;;;;;;4986590;28;19926;-80
2023/03/23 10:18:36;;;;;;;;;;;;;;;;;;4985972;28;20020;-79
2023/03/23 10:21:03;;;;;;;;;;;;;;;;;;4969599;28;20294;-79
2023/03/23 10:23:29;;;;;;;;;;;;;;;;;;4986674;28;19926;-80
2023/03/23 10:25:55;;;;;;;;;;;;;;;;;;4985677;28;19934;-80
2023/03/23 10:28:21;;;;;;;;;;;;;;;;;;4985271;28;20396;-80
2023/03/23 10:30:47;;;;;;;;;;;;;;;;;;4968798;28;19926;-79
2023/03/23 10:33:13;;;;;;;;;;;;;;;;;;4986804;28;19930;-79
2023/03/23 10:35:39;;;;;;;;;;;;;;;;;;4983918;28;20274;-79
2023/03/23 10:38:05;;;;;;;;;;;;;;;;;;4985093;28;19929;-80
2023/03/23 10:40:33;;;;;;;;;;;;;;;;;;4984283;28;19956;-79
2023/03/23 10:42:59;;;;;;;;;;;;;;;;;;4987452;28;20012;-79
2023/03/23 10:45:26;;;;;;;;;;;;;;;;;;4985488;28;19981;-79
2023/03/23 10:47:52;;;;;;;;;;;;;;;;;;4986263;28;19930;-80
2023/03/23 10:50:18;;;;;;;;;;;;;;;;;;4982663;28;19926;-79
2023/03/23 10:52:44;;;;;;;;;;;;;;;;;;4986382;28;19929;-78
2023/03/23 10:55:10;;;;;;;;;;;;;;;;;;4982057;28;20301;-80
2023/03/23 10:57:36;;;;;;;;;;;;;;;;;;4981138;28;19936;-79
2023/03/23 11:00:05;;;;;;;;;;;;;;;;;;4984148;28;20378;-76
2023/03/23 11:02:31;;;;;;;;;;;;;;;;;;4986013;28;20845;-78
2023/03/23 11:04:58;;;;;;;;;;;;;;;;;;4977785;28;19973;-78
2023/03/23 11:07:24;;;;;;;;;;;;;;;;;;4975259;28;19930;-81
2023/03/23 11:09:50;;;;;;;;;;;;;;;;;;4982432;28;19929;-77
2023/03/23 11:12:16;;;;;;;;;;;;;;;;;;4983579;28;20611;-79
2023/03/23 11:14:42;;;;;;;;;;;;;;;;;;4973576;28;19945;-79
2023/03/23 11:17:08;;;;;;;;;;;;;;;;;;4971413;28;19930;-78
2023/03/23 11:19:35;;;;;;;;;;;;;;;;;;4959072;28;20003;-79
2023/03/23 11:22:01;;;;;;;;;;;;;;;;;;4974131;28;20637;-79
2023/03/23 11:24:27;;;;;;;;;;;;;;;;;;4973067;28;19937;-78
2023/03/23 11:26:53;;;;;;;;;;;;;;;;;;4958219;28;19949;-79
2023/03/23 11:29:19;;;;;;;;;;;;;;;;;;4975662;28;20381;-80
2023/03/23 11:31:45;;;;;;;;;;;;;;;;;;4982096;28;19934;-78
2023/03/23 11:34:11;;;;;;;;;;;;;;;;;;4995340;28;19937;-77
2023/03/23 11:36:37;;;;;;;;;;;;;;;;;;4962018;28;20425;-78
2023/03/23 11:39:04;;;;;;;;;;;;;;;;;;4964394;28;19981;-78
2023/03/23 11:41:30;;;;;;;;;;;;;;;;;;4978658;28;20398;-80
2023/03/23 11:43:56;;;;;;;;;;;;;;;;;;4968491;28;19930;-79
2023/03/23 11:46:22;;;;;;;;;;;;;;;;;;4984172;28;19949;-79
2023/03/23 11:48:48;;;;;;;;;;;;;;;;;;4984661;28;19925;-79
2023/03/23 11:51:14;;;;;;;;;;;;;;;;;;4984368;28;19933;-81
2023/03/23 11:53:40;;;;;;;;;;;;;;;;;;4986898;28;19936;-81
2023/03/23 11:56:06;;;;;;;;;;;;;;;;;;4986245;28;19999;-81
2023/03/23 11:58:32;;;;;;;;;;;;;;;;;;4983848;28;19930;-79
2023/03/23 12:00:58;;;;;;;;;;;;;;;;;;4984748;28;19937;-77
2023/03/23 12:03:25;;;;;;;;;;;;;;;;;;4987665;28;19953;-80
2023/03/23 12:05:51;;;;;;;;;;;;;;;;;;4987333;28;20735;-78
2023/03/23 12:08:17;;;;;;;;;;;;;;;;;;4981156;28;19930;-79
2023/03/23 12:10:43;;;;;;;;;;;;;;;;;;4975774;28;19934;-80
2023/03/23 12:13:11;;;;;;;;;;;;;;;;;;4979913;28;19941;-78
2023/03/23 12:15:37;;;;;;;;;;;;;;;;;;4979094;28;20468;-79
2023/03/23 12:18:03;;;;;;;;;;;;;;;;;;4977379;28;19929;-79
2023/03/23 12:20:28;;;;;;;;;;;;;;;;;;4976086;28;19932;-79
2023/03/23 12:22:54;;;;;;;;;;;;;;;;;;4977204;28;20401;-79
2023/03/23 12:25:20;;;;;;;;;;;;;;;;;;4979555;28;20032;-79
2023/03/23 12:27:46;;;;;;;;;;;;;;;;;;4979882;28;20108;-79
2023/03/23 12:30:12;;;;;;;;;;;;;;;;;;4979948;28;19937;-79
2023/03/23 12:32:38;;;;;;;;;;;;;;;;;;4978620;28;19929;-78
2023/03/23 12:35:05;;;;;;;;;;;;;;;;;;4961389;28;19926;-79
2023/03/23 12:37:31;;;;;;;;;;;;;;;;;;4961537;28;19930;-78
2023/03/23 12:39:57;;;;;;;;;;;;;;;;;;4979303;28;20574;-78
2023/03/23 12:42:23;;;;;;;;;;;;;;;;;;4981907;28;19936;-79
2023/03/23 12:44:48;;;;;;;;;;;;;;;;;;4982389;28;19930;-76
2023/03/23 12:47:15;;;;;;;;;;;;;;;;;;4984657;28;19929;-79
2023/03/23 12:49:41;;;;;;;;;;;;;;;;;;4983703;28;19937;-78
2023/03/23 12:52:11;;;;;;;;;;;;;;;;;;4985016;28;19929;-80
2023/03/23 12:54:37;;;;;;;;;;;;;;;;;;4984385;28;19937;-77
2023/03/23 12:57:03;;;;;;;;;;;;;;;;;;4985361;28;19930;-79
2023/03/23 12:59:29;;;;;;;;;;;;;;;;;;4984653;28;19953;-79
2023/03/23 13:01:55;;;;;;;;;;;;;;;;;;4985858;28;19934;-79
2023/03/23 13:04:21;;;;;;;;;;;;;;;;;;4983709;28;20444;-80
2023/03/23 13:06:47;;;;;;;;;;;;;;;;;;4986465;28;19925;-76
2023/03/23 13:09:13;;;;;;;;;;;;;;;;;;4967629;28;19956;-78
2023/03/23 13:11:40;;;;;;;;;;;;;;;;;;4969478;28;20451;-78
2023/03/23 13:14:06;;;;;;;;;;;;;;;;;;4981235;28;19957;-79
2023/03/23 13:16:32;;;;;;;;;;;;;;;;;;4983676;28;19936;-79
2023/03/23 13:18:58;;;;;;;;;;;;;;;;;;4984218;28;19984;-78
2023/03/23 13:21:27;;;;;;;;;;;;;;;;;;4968697;28;19946;-78
2023/03/23 13:23:56;;;;;;;;;;;;;;;;;;4969014;28;20012;-79
2023/03/23 13:26:22;;;;;;;;;;;;;;;;;;4984312;28;20001;-79
2023/03/23 13:28:49;;;;;;;;;;;;;;;;;;4988665;28;19995;-79
2023/03/23 13:31:15;;;;;;;;;;;;;;;;;;4983757;28;19926;-79
2023/03/23 13:33:41;;;;;;;;;;;;;;;;;;4986102;28;20305;-80
2023/03/23 13:36:07;;;;;;;;;;;;;;;;;;4981996;28;19934;-77
2023/03/23 13:38:33;;;;;;;;;;;;;;;;;;4984054;28;19922;-79
2023/03/23 13:41:00;;;;;;;;;;;;;;;;;;4980984;28;19932;-78
2023/03/23 13:43:26;;;;;;;;;;;;;;;;;;4958051;28;19929;-78
2023/03/23 13:45:53;;;;;;;;;;;;;;;;;;4983953;28;19930;-78
2023/03/23 13:48:19;;;;;;;;;;;;;;;;;;4984572;28;19980;-79
2023/03/23 13:50:45;;;;;;;;;;;;;;;;;;4983338;28;20362;-80
2023/03/23 13:53:11;;;;;;;;;;;;;;;;;;4984580;28;19929;-79
2023/03/23 13:55:37;;;;;;;;;;;;;;;;;;4980928;28;21692;-79
2023/03/23 13:58:05;;;;;;;;;;;;;;;;;;4984447;28;19937;-80
2023/03/23 14:00:33;;;;;;;;;;;;;;;;;;4968130;28;19975;-81
2023/03/23 14:02:59;;;;;;;;;;;;;;;;;;4981499;28;19929;-80
2023/03/23 14:05:25;;;;;;;;;;;;;;;;;;4972280;28;20370;-79
2023/03/23 14:07:51;;;;;;;;;;;;;;;;;;4977260;28;19926;-78
2023/03/23 14:10:18;;;;;;;;;;;;;;;;;;4962538;28;19930;-78
2023/03/23 14:12:44;;;;;;;;;;;;;;;;;;4975147;28;19980;-77
2023/03/23 14:15:10;;;;;;;;;;;;;;;;;;4975691;28;19988;-78
2023/03/23 14:17:37;;;;;;;;;;;;;;;;;;4962656;28;19937;-77
2023/03/23 14:20:03;;;;;;;;;;;;;;;;;;4961103;28;19930;-78
2023/03/23 14:22:29;;;;;;;;;;;;;;;;;;4977501;28;20001;-77
2023/03/23 14:24:55;;;;;;;;;;;;;;;;;;4975720;28;19930;-77
2023/03/23 14:27:21;;;;;;;;;;;;;;;;;;4978898;28;19940;-80
2023/03/23 14:29:47;;;;;;;;;;;;;;;;;;4977749;28;19933;-81
2023/03/23 14:32:13;;;;;;;;;;;;;;;;;;4974940;28;19976;-80
2023/03/23 14:34:51;;;;;;;;;;;;;;;;;;5091256;27;19965;-80
2023/03/23 14:37:17;;;;;;;;;;;;;;;;;;5092624;28;20013;-80
2023/03/23 14:39:43;;;;;;;;;;;;;;;;;;5104044;27;20009;-81
2023/03/23 14:42:09;;;;;;;;;;;;;;;;;;5111503;27;20435;-80
2023/03/23 14:44:35;;;;;;;;;;;;;;;;;;5086452;28;19973;-80
2023/03/23 14:47:00;;;;;;;;;;;;;;;;;;5106564;27;19969;-81
2023/03/23 14:49:26;;;;;;;;;;;;;;;;;;5107214;27;19933;-80
2023/03/23 14:51:52;;;;;;;;;;;;;;;;;;5092058;28;19995;-81
2023/03/23 14:54:18;;;;;;;;;;;;;;;;;;5090644;28;20375;-81
2023/03/23 14:56:44;;;;;;;;;;;;;;;;;;5091650;28;19953;-80
2023/03/23 14:59:10;;;;;;;;;;;;;;;;;;5091507;28;19936;-81
2023/03/23 15:01:36;;;;;;;;;;;;;;;;;;5110597;28;19928;-80
2023/03/23 15:04:02;;;;;;;;;;;;;;;;;;5090628;28;20382;-81
2023/03/23 15:06:28;;;;;;;;;;;;;;;;;;5090604;28;19932;-80
2023/03/23 15:08:54;;;;;;;;;;;;;;;;;;5092039;28;19994;-77
2023/03/23 15:11:20;;;;;;;;;;;;;;;;;;5106071;27;19936;-77
2023/03/23 15:13:46;;;;;;;;;;;;;;;;;;5107990;28;20324;-78
2023/03/23 15:16:12;;;;;;;;;;;;;;;;;;5100437;27;19935;-78
2023/03/23 15:18:38;;;;;;;;;;;;;;;;;;5092890;28;19929;-77
2023/03/23 15:21:03;;;;;;;;;;;;;;;;;;5089044;28;20286;-78
2023/03/23 15:23:30;;;;;;;;;;;;;;;;;;5083870;28;19928;-77
2023/03/23 15:25:55;;;;;;;;;;;;;;;;;;5084314;28;19932;-77
2023/03/23 15:28:21;;;;;;;;;;;;;;;;;;5101864;27;19931;-79
2023/03/23 15:30:47;;;;;;;;;;;;;;;;;;5118336;27;19928;-78
2023/03/23 15:33:13;;;;;;;;;;;;;;;;;;5089561;28;21669;-78
2023/03/23 15:35:40;;;;;;;;;;;;;;;;;;5088609;28;19935;-78
2023/03/23 15:38:06;;;;;;;;;;;;;;;;;;5090799;28;20333;-79
2023/03/23 15:40:32;;;;;;;;;;;;;;;;;;5090396;28;19936;-78
2023/03/23 15:42:58;;;;;;;;;;;;;;;;;;5118142;27;20884;-78
2023/03/23 15:45:24;;;;;;;;;;;;;;;;;;5098536;27;19950;-78
2023/03/23 15:47:50;;;;;;;;;;;;;;;;;;5076107;28;19982;-77
2023/03/23 15:50:16;;;;;;;;;;;;;;;;;;5073518;28;20441;-79
2023/03/23 15:52:42;;;;;;;;;;;;;;;;;;5095457;27;19928;-78
2023/03/23 15:55:08;;;;;;;;;;;;;;;;;;5091516;27;20471;-78
2023/03/23 15:57:34;;;;;;;;;;;;;;;;;;5079962;28;19979;-78
2023/03/23 16:00:00;;;;;;;;;;;;;;;;;;5078012;28;20005;-79
2023/03/23 16:02:26;;;;;;;;;;;;;;;;;;5093990;27;19924;-79
2023/03/23 16:04:52;;;;;;;;;;;;;;;;;;5077255;28;19934;-75
2023/03/23 16:07:18;;;;;;;;;;;;;;;;;;5090502;27;20398;-77
2023/03/23 16:09:44;;;;;;;;;;;;;;;;;;5077033;28;19928;-79
2023/03/23 16:12:11;;;;;;;;;;;;;;;;;;5089479;27;20473;-76
2023/03/23 16:14:37;;;;;;;;;;;;;;;;;;5095827;28;19927;-79
2023/03/23 16:17:04;;;;;;;;;;;;;;;;;;5076397;28;20343;-76
2023/03/23 16:19:30;;;;;;;;;;;;;;;;;;5076061;28;19924;-77
2023/03/23 16:21:56;;;;;;;;;;;;;;;;;;5055766;28;19928;-77
2023/03/23 16:24:25;;;;;;;;;;;;;;;;;;5071324;28;19931;-80
2023/03/23 16:26:51;;;;;;;;;;;;;;;;;;5073846;28;19932;-79
2023/03/23 16:29:17;;;;;;;;;;;;;;;;;;5084541;27;19973;-76
2023/03/23 16:31:43;;;;;;;;;;;;;;;;;;5075634;28;19977;-76
2023/03/23 16:34:09;;;;;;;;;;;;;;;;;;5072769;28;19964;-78
2023/03/23 16:36:34;;;;;;;;;;;;;;;;;;5072157;28;19938;-79
2023/03/23 16:39:00;;;;;;;;;;;;;;;;;;5102106;27;20355;-78